sensor_id;sensor_type;location;lat;lon;timestamp;temperature;humidity
16829;DHT22;8531;48.078;11.968;2022-10-31T00:01:29;11.90;99.90
16829;DHT22;8531;48.078;11.968;2022-10-31T00:03:55;11.90;99.90
16829;DHT22;8531;48.078;11.968;2022-10-31T00:06:21;11.90;99.90
16829;DHT22;8531;48.078;11.968;2022-10-31T00:08:51;11.90;99.90
16829;DHT22;8531;48.078;11.968;2022-10-31T00:11:17;11.90;99.90
16829;DHT22;8531;48.078;11.968;2022-10-31T00:13:43;11.90;99.90
16829;DHT22;8531;48.078;11.968;2022-10-31T00:16:16;11.90;99.90
16829;DHT22;8531;48.078;11.968;2022-10-31T00:18:43;11.90;99.90
16829;DHT22;8531;48.078;11.968;2022-10-31T00:21:09;11.90;99.90
16829;DHT22;8531;48.078;11.968;2022-10-31T00:23:34;11.90;99.90
16829;DHT22;8531;48.078;11.968;2022-10-31T00:26:02;11.80;99.90
16829;DHT22;8531;48.078;11.968;2022-10-31T00:28:28;11.80;99.90
16829;DHT22;8531;48.078;11.968;2022-10-31T00:30:59;11.80;99.90
16829;DHT22;8531;48.078;11.968;2022-10-31T00:33:25;11.70;99.90
16829;DHT22;8531;48.078;11.968;2022-10-31T00:35:51;11.70;99.90
16829;DHT22;8531;48.078;11.968;2022-10-31T00:38:16;11.70;99.90
16829;DHT22;8531;48.078;11.968;2022-10-31T00:40:42;11.70;99.90
16829;DHT22;8531;48.078;11.968;2022-10-31T00:43:08;11.70;99.90
16829;DHT22;8531;48.078;11.968;2022-10-31T00:45:33;11.70;99.90
16829;DHT22;8531;48.078;11.968;2022-10-31T00:47:59;11.70;99.90
16829;DHT22;8531;48.078;11.968;2022-10-31T00:50:25;11.70;99.90
16829;DHT22;8531;48.078;11.968;2022-10-31T00:52:50;11.70;99.90
16829;DHT22;8531;48.078;11.968;2022-10-31T00:55:16;11.60;99.90
16829;DHT22;8531;48.078;11.968;2022-10-31T00:57:42;11.60;99.90
16829;DHT22;8531;48.078;11.968;2022-10-31T01:00:08;11.70;99.90
16829;DHT22;8531;48.078;11.968;2022-10-31T01:02:34;11.60;99.90
16829;DHT22;8531;48.078;11.968;2022-10-31T01:04:59;11.50;99.90
16829;DHT22;8531;48.078;11.968;2022-10-31T01:07:25;11.50;99.90
16829;DHT22;8531;48.078;11.968;2022-10-31T01:09:51;11.50;99.90
16829;DHT22;8531;48.078;11.968;2022-10-31T01:12:16;11.50;99.90
16829;DHT22;8531;48.078;11.968;2022-10-31T01:14:46;11.60;99.90
16829;DHT22;8531;48.078;11.968;2022-10-31T01:17:12;11.60;99.90
16829;DHT22;8531;48.078;11.968;2022-10-31T01:19:38;11.60;99.90
16829;DHT22;8531;48.078;11.968;2022-10-31T01:22:04;11.60;99.90
16829;DHT22;8531;48.078;11.968;2022-10-31T01:24:31;11.60;99.90
16829;DHT22;8531;48.078;11.968;2022-10-31T01:26:57;11.60;99.90
16829;DHT22;8531;48.078;11.968;2022-10-31T01:29:22;11.50;99.90
16829;DHT22;8531;48.078;11.968;2022-10-31T01:31:48;11.50;99.90
16829;DHT22;8531;48.078;11.968;2022-10-31T01:34:16;11.50;99.90
16829;DHT22;8531;48.078;11.968;2022-10-31T01:36:44;11.40;99.90
16829;DHT22;8531;48.078;11.968;2022-10-31T01:39:15;11.40;99.90
16829;DHT22;8531;48.078;11.968;2022-10-31T01:41:44;11.40;99.90
16829;DHT22;8531;48.078;11.968;2022-10-31T01:46:58;11.30;99.90
16829;DHT22;8531;48.078;11.968;2022-10-31T01:49:56;11.30;99.90
16829;DHT22;8531;48.078;11.968;2022-10-31T01:52:45;11.20;99.90
16829;DHT22;8531;48.078;11.968;2022-10-31T01:55:40;11.20;99.90
16829;DHT22;8531;48.078;11.968;2022-10-31T01:58:09;11.20;99.90
16829;DHT22;8531;48.078;11.968;2022-10-31T02:00:37;11.20;99.90
16829;DHT22;8531;48.078;11.968;2022-10-31T02:03:03;11.20;99.90
16829;DHT22;8531;48.078;11.968;2022-10-31T02:05:30;11.20;99.90
16829;DHT22;8531;48.078;11.968;2022-10-31T02:08:07;11.20;99.90
16829;DHT22;8531;48.078;11.968;2022-10-31T02:10:35;11.10;99.90
16829;DHT22;8531;48.078;11.968;2022-10-31T02:13:03;11.20;99.90
16829;DHT22;8531;48.078;11.968;2022-10-31T02:15:31;11.20;99.90
16829;DHT22;8531;48.078;11.968;2022-10-31T02:17:57;11.10;99.90
16829;DHT22;8531;48.078;11.968;2022-10-31T02:20:25;11.10;99.90
16829;DHT22;8531;48.078;11.968;2022-10-31T02:23:26;11.10;99.90
16829;DHT22;8531;48.078;11.968;2022-10-31T02:29:03;11.00;99.90
16829;DHT22;8531;48.078;11.968;2022-10-31T02:34:22;11.00;99.90
16829;DHT22;8531;48.078;11.968;2022-10-31T02:37:14;11.00;99.90
16829;DHT22;8531;48.078;11.968;2022-10-31T02:40:14;10.90;99.90
16829;DHT22;8531;48.078;11.968;2022-10-31T02:43:06;10.90;99.90
16829;DHT22;8531;48.078;11.968;2022-10-31T02:46:03;10.90;99.90
16829;DHT22;8531;48.078;11.968;2022-10-31T02:48:31;10.90;99.90
16829;DHT22;8531;48.078;11.968;2022-10-31T02:51:02;10.90;99.90
16829;DHT22;8531;48.078;11.968;2022-10-31T02:53:36;10.90;99.90
16829;DHT22;8531;48.078;11.968;2022-10-31T02:58:38;10.90;99.90
16829;DHT22;8531;48.078;11.968;2022-10-31T03:01:44;10.90;99.90
16829;DHT22;8531;48.078;11.968;2022-10-31T03:06:59;10.90;99.90
16829;DHT22;8531;48.078;11.968;2022-10-31T03:09:49;10.90;99.90
16829;DHT22;8531;48.078;11.968;2022-10-31T03:12:30;10.80;99.90
16829;DHT22;8531;48.078;11.968;2022-10-31T03:15:14;10.80;99.90
16829;DHT22;8531;48.078;11.968;2022-10-31T03:20:18;10.80;99.90
16829;DHT22;8531;48.078;11.968;2022-10-31T03:22:45;10.80;99.90
16829;DHT22;8531;48.078;11.968;2022-10-31T03:25:12;10.70;99.90
16829;DHT22;8531;48.078;11.968;2022-10-31T03:27:39;10.80;99.90
16829;DHT22;8531;48.078;11.968;2022-10-31T03:30:06;10.80;99.90
16829;DHT22;8531;48.078;11.968;2022-10-31T03:32:38;10.70;99.90
16829;DHT22;8531;48.078;11.968;2022-10-31T03:35:06;10.70;99.90
16829;DHT22;8531;48.078;11.968;2022-10-31T03:37:35;10.70;99.90
16829;DHT22;8531;48.078;11.968;2022-10-31T03:40:03;10.70;99.90
16829;DHT22;8531;48.078;11.968;2022-10-31T03:42:33;10.70;99.90
16829;DHT22;8531;48.078;11.968;2022-10-31T03:45:05;10.70;99.90
16829;DHT22;8531;48.078;11.968;2022-10-31T03:47:32;10.70;99.90
16829;DHT22;8531;48.078;11.968;2022-10-31T03:49:59;10.70;99.90
16829;DHT22;8531;48.078;11.968;2022-10-31T03:55:13;10.60;99.90
16829;DHT22;8531;48.078;11.968;2022-10-31T03:57:57;10.60;99.90
16829;DHT22;8531;48.078;11.968;2022-10-31T04:00:23;10.60;99.90
16829;DHT22;8531;48.078;11.968;2022-10-31T04:05:32;10.60;99.90
16829;DHT22;8531;48.078;11.968;2022-10-31T04:08:00;10.60;99.90
16829;DHT22;8531;48.078;11.968;2022-10-31T04:10:28;10.50;99.90
16829;DHT22;8531;48.078;11.968;2022-10-31T04:13:04;10.50;99.90
16829;DHT22;8531;48.078;11.968;2022-10-31T04:15:31;10.50;99.90
16829;DHT22;8531;48.078;11.968;2022-10-31T04:17:58;10.40;99.90
16829;DHT22;8531;48.078;11.968;2022-10-31T04:20:33;10.40;99.90
16829;DHT22;8531;48.078;11.968;2022-10-31T04:23:00;10.40;99.90
16829;DHT22;8531;48.078;11.968;2022-10-31T04:25:26;10.40;99.90
16829;DHT22;8531;48.078;11.968;2022-10-31T04:27:52;10.40;99.90
16829;DHT22;8531;48.078;11.968;2022-10-31T04:30:18;10.40;99.90
16829;DHT22;8531;48.078;11.968;2022-10-31T04:32:43;10.40;99.90
16829;DHT22;8531;48.078;11.968;2022-10-31T04:35:09;10.40;99.90
16829;DHT22;8531;48.078;11.968;2022-10-31T04:37:35;10.30;99.90
16829;DHT22;8531;48.078;11.968;2022-10-31T04:40:00;10.30;99.90
16829;DHT22;8531;48.078;11.968;2022-10-31T04:42:29;10.30;99.90
16829;DHT22;8531;48.078;11.968;2022-10-31T04:44:55;10.30;99.90
16829;DHT22;8531;48.078;11.968;2022-10-31T04:47:21;10.30;99.90
16829;DHT22;8531;48.078;11.968;2022-10-31T04:49:46;10.30;99.90
16829;DHT22;8531;48.078;11.968;2022-10-31T04:52:12;10.30;99.90
16829;DHT22;8531;48.078;11.968;2022-10-31T04:54:38;10.30;99.90
16829;DHT22;8531;48.078;11.968;2022-10-31T04:57:03;10.30;99.90
16829;DHT22;8531;48.078;11.968;2022-10-31T04:59:29;10.30;99.90
16829;DHT22;8531;48.078;11.968;2022-10-31T05:01:55;10.30;99.90
16829;DHT22;8531;48.078;11.968;2022-10-31T05:04:20;10.30;99.90
16829;DHT22;8531;48.078;11.968;2022-10-31T05:06:46;10.30;99.90
16829;DHT22;8531;48.078;11.968;2022-10-31T05:09:12;10.30;99.90
16829;DHT22;8531;48.078;11.968;2022-10-31T05:11:38;10.30;99.90
16829;DHT22;8531;48.078;11.968;2022-10-31T05:14:03;10.20;99.90
16829;DHT22;8531;48.078;11.968;2022-10-31T05:16:29;10.20;99.90
16829;DHT22;8531;48.078;11.968;2022-10-31T05:18:55;10.20;99.90
16829;DHT22;8531;48.078;11.968;2022-10-31T05:21:20;10.20;99.90
16829;DHT22;8531;48.078;11.968;2022-10-31T05:23:46;10.20;99.90
16829;DHT22;8531;48.078;11.968;2022-10-31T05:26:12;10.20;99.90
16829;DHT22;8531;48.078;11.968;2022-10-31T05:28:37;10.30;99.90
16829;DHT22;8531;48.078;11.968;2022-10-31T05:31:03;10.40;99.90
16829;DHT22;8531;48.078;11.968;2022-10-31T05:33:29;10.40;99.90
16829;DHT22;8531;48.078;11.968;2022-10-31T05:35:54;10.50;99.90
16829;DHT22;8531;48.078;11.968;2022-10-31T05:38:20;10.50;99.90
16829;DHT22;8531;48.078;11.968;2022-10-31T05:40:46;10.50;99.90
16829;DHT22;8531;48.078;11.968;2022-10-31T05:43:11;10.40;99.90
16829;DHT22;8531;48.078;11.968;2022-10-31T05:45:37;10.40;99.90
16829;DHT22;8531;48.078;11.968;2022-10-31T05:48:03;10.30;99.90
16829;DHT22;8531;48.078;11.968;2022-10-31T05:50:30;10.30;99.90
16829;DHT22;8531;48.078;11.968;2022-10-31T05:52:59;10.20;99.90
16829;DHT22;8531;48.078;11.968;2022-10-31T05:55:25;10.20;99.90
16829;DHT22;8531;48.078;11.968;2022-10-31T05:57:52;10.10;99.90
16829;DHT22;8531;48.078;11.968;2022-10-31T06:00:18;10.10;99.90
16829;DHT22;8531;48.078;11.968;2022-10-31T06:02:44;10.20;99.90
16829;DHT22;8531;48.078;11.968;2022-10-31T06:05:09;10.10;99.90
16829;DHT22;8531;48.078;11.968;2022-10-31T06:07:36;10.10;99.90
16829;DHT22;8531;48.078;11.968;2022-10-31T06:10:04;10.20;99.90
16829;DHT22;8531;48.078;11.968;2022-10-31T06:12:30;10.20;99.90
16829;DHT22;8531;48.078;11.968;2022-10-31T06:14:56;10.20;99.90
16829;DHT22;8531;48.078;11.968;2022-10-31T06:17:22;10.30;99.90
16829;DHT22;8531;48.078;11.968;2022-10-31T06:19:47;10.30;99.90
16829;DHT22;8531;48.078;11.968;2022-10-31T06:22:13;10.20;99.90
16829;DHT22;8531;48.078;11.968;2022-10-31T06:24:39;10.20;99.90
16829;DHT22;8531;48.078;11.968;2022-10-31T06:27:05;10.20;99.90
16829;DHT22;8531;48.078;11.968;2022-10-31T06:29:31;10.20;99.90
16829;DHT22;8531;48.078;11.968;2022-10-31T06:31:56;10.20;99.90
16829;DHT22;8531;48.078;11.968;2022-10-31T06:34:22;10.30;99.90
16829;DHT22;8531;48.078;11.968;2022-10-31T06:36:48;10.40;99.90
16829;DHT22;8531;48.078;11.968;2022-10-31T06:39:14;10.50;99.90
16829;DHT22;8531;48.078;11.968;2022-10-31T06:41:40;10.60;99.90
16829;DHT22;8531;48.078;11.968;2022-10-31T06:44:07;10.70;99.90
16829;DHT22;8531;48.078;11.968;2022-10-31T06:46:33;10.70;99.90
16829;DHT22;8531;48.078;11.968;2022-10-31T06:48:59;10.80;99.90
16829;DHT22;8531;48.078;11.968;2022-10-31T06:51:24;10.70;99.90
16829;DHT22;8531;48.078;11.968;2022-10-31T06:53:50;10.70;99.90
16829;DHT22;8531;48.078;11.968;2022-10-31T06:56:16;10.70;99.90
16829;DHT22;8531;48.078;11.968;2022-10-31T06:58:41;10.80;99.90
16829;DHT22;8531;48.078;11.968;2022-10-31T07:01:07;10.80;99.90
16829;DHT22;8531;48.078;11.968;2022-10-31T07:03:33;10.90;99.90
16829;DHT22;8531;48.078;11.968;2022-10-31T07:05:59;10.90;99.90
16829;DHT22;8531;48.078;11.968;2022-10-31T07:08:25;11.00;99.90
16829;DHT22;8531;48.078;11.968;2022-10-31T07:10:53;11.00;99.90
16829;DHT22;8531;48.078;11.968;2022-10-31T07:13:19;11.00;99.90
16829;DHT22;8531;48.078;11.968;2022-10-31T07:15:50;11.10;99.90
16829;DHT22;8531;48.078;11.968;2022-10-31T07:18:16;11.10;99.90
16829;DHT22;8531;48.078;11.968;2022-10-31T07:20:42;11.20;99.90
16829;DHT22;8531;48.078;11.968;2022-10-31T07:23:09;11.20;99.90
16829;DHT22;8531;48.078;11.968;2022-10-31T07:25:36;11.30;99.90
16829;DHT22;8531;48.078;11.968;2022-10-31T07:28:02;11.40;99.90
16829;DHT22;8531;48.078;11.968;2022-10-31T07:30:28;11.40;99.90
16829;DHT22;8531;48.078;11.968;2022-10-31T07:32:53;11.60;99.90
16829;DHT22;8531;48.078;11.968;2022-10-31T07:35:24;11.70;99.90
16829;DHT22;8531;48.078;11.968;2022-10-31T07:37:50;11.80;99.90
16829;DHT22;8531;48.078;11.968;2022-10-31T07:40:16;11.90;99.90
16829;DHT22;8531;48.078;11.968;2022-10-31T07:42:44;12.00;99.90
16829;DHT22;8531;48.078;11.968;2022-10-31T07:45:12;12.00;99.90
16829;DHT22;8531;48.078;11.968;2022-10-31T07:47:42;12.00;99.90
16829;DHT22;8531;48.078;11.968;2022-10-31T07:50:10;12.00;99.90
16829;DHT22;8531;48.078;11.968;2022-10-31T07:52:36;12.00;99.90
16829;DHT22;8531;48.078;11.968;2022-10-31T07:55:02;12.10;99.90
16829;DHT22;8531;48.078;11.968;2022-10-31T07:57:28;12.10;99.90
16829;DHT22;8531;48.078;11.968;2022-10-31T07:59:54;12.20;99.90
16829;DHT22;8531;48.078;11.968;2022-10-31T08:02:19;12.40;99.90
16829;DHT22;8531;48.078;11.968;2022-10-31T08:04:45;12.40;99.90
16829;DHT22;8531;48.078;11.968;2022-10-31T08:07:11;12.40;99.90
16829;DHT22;8531;48.078;11.968;2022-10-31T08:09:36;12.60;99.90
16829;DHT22;8531;48.078;11.968;2022-10-31T08:12:02;12.70;99.90
16829;DHT22;8531;48.078;11.968;2022-10-31T08:14:28;12.90;99.90
16829;DHT22;8531;48.078;11.968;2022-10-31T08:16:54;12.90;99.90
16829;DHT22;8531;48.078;11.968;2022-10-31T08:19:19;13.00;99.90
16829;DHT22;8531;48.078;11.968;2022-10-31T08:21:45;13.10;99.90
16829;DHT22;8531;48.078;11.968;2022-10-31T08:24:11;13.10;99.90
16829;DHT22;8531;48.078;11.968;2022-10-31T08:26:37;13.20;99.90
16829;DHT22;8531;48.078;11.968;2022-10-31T08:29:03;13.20;99.90
16829;DHT22;8531;48.078;11.968;2022-10-31T08:31:29;13.20;99.90
16829;DHT22;8531;48.078;11.968;2022-10-31T08:33:55;13.30;99.90
16829;DHT22;8531;48.078;11.968;2022-10-31T08:36:21;13.50;99.90
16829;DHT22;8531;48.078;11.968;2022-10-31T08:38:47;13.50;99.90
16829;DHT22;8531;48.078;11.968;2022-10-31T08:41:14;13.50;99.90
16829;DHT22;8531;48.078;11.968;2022-10-31T08:43:39;13.60;99.90
16829;DHT22;8531;48.078;11.968;2022-10-31T08:46:05;13.70;99.90
16829;DHT22;8531;48.078;11.968;2022-10-31T08:48:31;13.70;99.90
16829;DHT22;8531;48.078;11.968;2022-10-31T08:50:58;13.70;99.90
16829;DHT22;8531;48.078;11.968;2022-10-31T08:53:24;13.80;99.90
16829;DHT22;8531;48.078;11.968;2022-10-31T08:55:50;13.80;99.90
16829;DHT22;8531;48.078;11.968;2022-10-31T08:58:19;13.80;99.90
16829;DHT22;8531;48.078;11.968;2022-10-31T09:00:47;13.80;99.90
16829;DHT22;8531;48.078;11.968;2022-10-31T09:03:27;13.90;99.90
16829;DHT22;8531;48.078;11.968;2022-10-31T09:06:00;14.00;99.90
16829;DHT22;8531;48.078;11.968;2022-10-31T09:08:28;14.10;99.90
16829;DHT22;8531;48.078;11.968;2022-10-31T09:10:56;14.10;99.90
16829;DHT22;8531;48.078;11.968;2022-10-31T09:13:22;14.10;99.90
16829;DHT22;8531;48.078;11.968;2022-10-31T09:15:49;14.10;99.90
16829;DHT22;8531;48.078;11.968;2022-10-31T09:18:17;14.20;99.90
16829;DHT22;8531;48.078;11.968;2022-10-31T09:20:44;14.30;99.90
16829;DHT22;8531;48.078;11.968;2022-10-31T09:23:12;14.30;99.90
16829;DHT22;8531;48.078;11.968;2022-10-31T09:25:39;14.40;99.90
16829;DHT22;8531;48.078;11.968;2022-10-31T09:28:06;14.50;99.90
16829;DHT22;8531;48.078;11.968;2022-10-31T09:30:33;14.70;99.90
16829;DHT22;8531;48.078;11.968;2022-10-31T09:33:04;14.80;99.90
16829;DHT22;8531;48.078;11.968;2022-10-31T09:35:30;14.70;99.90
16829;DHT22;8531;48.078;11.968;2022-10-31T09:37:57;14.80;99.90
16829;DHT22;8531;48.078;11.968;2022-10-31T09:40:44;15.00;99.90
16829;DHT22;8531;48.078;11.968;2022-10-31T09:48:57;15.30;99.90
16829;DHT22;8531;48.078;11.968;2022-10-31T09:54:40;15.60;99.90
16829;DHT22;8531;48.078;11.968;2022-10-31T09:57:14;15.70;99.90
16829;DHT22;8531;48.078;11.968;2022-10-31T09:59:42;15.70;99.90
16829;DHT22;8531;48.078;11.968;2022-10-31T10:02:39;15.80;99.90
16829;DHT22;8531;48.078;11.968;2022-10-31T10:05:14;15.80;99.90
16829;DHT22;8531;48.078;11.968;2022-10-31T10:13:28;16.10;99.90
16829;DHT22;8531;48.078;11.968;2022-10-31T10:16:18;16.20;99.90
16829;DHT22;8531;48.078;11.968;2022-10-31T10:30:10;16.60;99.90
16829;DHT22;8531;48.078;11.968;2022-10-31T10:32:51;16.60;99.90
16829;DHT22;8531;48.078;11.968;2022-10-31T10:37:52;16.70;99.90
16829;DHT22;8531;48.078;11.968;2022-10-31T10:40:24;16.60;99.90
16829;DHT22;8531;48.078;11.968;2022-10-31T10:51:27;16.90;99.90
16829;DHT22;8531;48.078;11.968;2022-10-31T10:59:21;17.10;99.90
16829;DHT22;8531;48.078;11.968;2022-10-31T11:01:50;17.20;99.90
16829;DHT22;8531;48.078;11.968;2022-10-31T11:04:34;17.20;99.90
16829;DHT22;8531;48.078;11.968;2022-10-31T11:07:04;17.30;99.90
16829;DHT22;8531;48.078;11.968;2022-10-31T11:09:31;17.30;99.90
16829;DHT22;8531;48.078;11.968;2022-10-31T11:11:58;17.30;99.90
16829;DHT22;8531;48.078;11.968;2022-10-31T11:14:24;17.30;99.90
16829;DHT22;8531;48.078;11.968;2022-10-31T11:16:55;17.40;99.90
16829;DHT22;8531;48.078;11.968;2022-10-31T11:19:23;17.40;99.90
16829;DHT22;8531;48.078;11.968;2022-10-31T11:21:51;17.50;99.90
16829;DHT22;8531;48.078;11.968;2022-10-31T11:24:18;17.60;99.90
16829;DHT22;8531;48.078;11.968;2022-10-31T11:26:47;17.60;99.90
16829;DHT22;8531;48.078;11.968;2022-10-31T11:29:24;17.60;99.90
16829;DHT22;8531;48.078;11.968;2022-10-31T11:31:56;17.70;99.90
16829;DHT22;8531;48.078;11.968;2022-10-31T11:34:35;17.80;99.90
16829;DHT22;8531;48.078;11.968;2022-10-31T11:37:12;17.90;99.90
16829;DHT22;8531;48.078;11.968;2022-10-31T11:40:06;18.00;99.90
16829;DHT22;8531;48.078;11.968;2022-10-31T11:42:39;18.00;99.90
16829;DHT22;8531;48.078;11.968;2022-10-31T11:45:17;18.10;99.90
16829;DHT22;8531;48.078;11.968;2022-10-31T11:47:51;18.10;99.90
16829;DHT22;8531;48.078;11.968;2022-10-31T11:50:39;18.00;99.90
16829;DHT22;8531;48.078;11.968;2022-10-31T11:53:26;17.90;99.90
16829;DHT22;8531;48.078;11.968;2022-10-31T11:56:13;17.90;99.90
16829;DHT22;8531;48.078;11.968;2022-10-31T11:58:39;17.90;99.90
16829;DHT22;8531;48.078;11.968;2022-10-31T12:01:05;17.90;99.90
16829;DHT22;8531;48.078;11.968;2022-10-31T12:03:42;17.80;99.90
16829;DHT22;8531;48.078;11.968;2022-10-31T12:06:24;17.80;99.90
16829;DHT22;8531;48.078;11.968;2022-10-31T12:08:51;17.90;99.90
16829;DHT22;8531;48.078;11.968;2022-10-31T12:11:40;17.90;99.90
16829;DHT22;8531;48.078;11.968;2022-10-31T12:14:16;17.90;99.90
16829;DHT22;8531;48.078;11.968;2022-10-31T12:25:50;17.90;99.90
16829;DHT22;8531;48.078;11.968;2022-10-31T12:31:20;18.00;99.90
16829;DHT22;8531;48.078;11.968;2022-10-31T12:37:13;18.20;99.90
16829;DHT22;8531;48.078;11.968;2022-10-31T12:42:56;18.50;99.90
16829;DHT22;8531;48.078;11.968;2022-10-31T12:45:32;18.60;99.90
16829;DHT22;8531;48.078;11.968;2022-10-31T12:56:50;18.70;99.90
16829;DHT22;8531;48.078;11.968;2022-10-31T12:59:33;18.60;99.90
16829;DHT22;8531;48.078;11.968;2022-10-31T13:02:15;18.70;99.90
16829;DHT22;8531;48.078;11.968;2022-10-31T13:04:55;18.70;99.90
16829;DHT22;8531;48.078;11.968;2022-10-31T13:07:27;18.60;99.90
16829;DHT22;8531;48.078;11.968;2022-10-31T13:10:02;18.60;99.90
16829;DHT22;8531;48.078;11.968;2022-10-31T13:12:33;18.60;99.90
16829;DHT22;8531;48.078;11.968;2022-10-31T13:15:30;18.70;99.90
16829;DHT22;8531;48.078;11.968;2022-10-31T13:18:00;18.70;99.90
16829;DHT22;8531;48.078;11.968;2022-10-31T13:20:32;18.60;99.90
16829;DHT22;8531;48.078;11.968;2022-10-31T13:25:55;18.60;99.90
16829;DHT22;8531;48.078;11.968;2022-10-31T13:28:45;18.70;99.90
16829;DHT22;8531;48.078;11.968;2022-10-31T13:31:11;18.70;99.90
16829;DHT22;8531;48.078;11.968;2022-10-31T13:33:52;18.60;99.90
16829;DHT22;8531;48.078;11.968;2022-10-31T13:36:40;18.70;99.90
16829;DHT22;8531;48.078;11.968;2022-10-31T13:39:31;18.70;99.90
16829;DHT22;8531;48.078;11.968;2022-10-31T13:44:36;18.70;99.90
16829;DHT22;8531;48.078;11.968;2022-10-31T13:47:25;18.80;99.90
16829;DHT22;8531;48.078;11.968;2022-10-31T13:49:51;18.80;99.90
16829;DHT22;8531;48.078;11.968;2022-10-31T13:52:23;18.70;99.90
16829;DHT22;8531;48.078;11.968;2022-10-31T13:54:51;18.80;99.90
16829;DHT22;8531;48.078;11.968;2022-10-31T13:57:41;18.80;99.90
16829;DHT22;8531;48.078;11.968;2022-10-31T14:02:53;18.70;99.90
16829;DHT22;8531;48.078;11.968;2022-10-31T14:05:32;18.80;99.90
16829;DHT22;8531;48.078;11.968;2022-10-31T14:08:03;18.70;99.90
16829;DHT22;8531;48.078;11.968;2022-10-31T14:10:38;18.70;99.90
16829;DHT22;8531;48.078;11.968;2022-10-31T14:15:42;18.70;99.90
16829;DHT22;8531;48.078;11.968;2022-10-31T14:18:28;18.70;99.90
16829;DHT22;8531;48.078;11.968;2022-10-31T14:20:55;18.50;99.90
16829;DHT22;8531;48.078;11.968;2022-10-31T14:23:35;18.50;99.90
16829;DHT22;8531;48.078;11.968;2022-10-31T14:28:42;18.20;99.90
16829;DHT22;8531;48.078;11.968;2022-10-31T14:31:29;18.10;99.90
16829;DHT22;8531;48.078;11.968;2022-10-31T14:34:02;18.10;99.90
16829;DHT22;8531;48.078;11.968;2022-10-31T14:39:20;17.90;99.90
16829;DHT22;8531;48.078;11.968;2022-10-31T14:42:26;17.90;99.90
16829;DHT22;8531;48.078;11.968;2022-10-31T14:50:59;17.80;99.90
16829;DHT22;8531;48.078;11.968;2022-10-31T14:53:31;17.80;99.90
16829;DHT22;8531;48.078;11.968;2022-10-31T14:55:59;17.80;99.90
16829;DHT22;8531;48.078;11.968;2022-10-31T14:58:33;17.80;99.90
16829;DHT22;8531;48.078;11.968;2022-10-31T15:01:00;17.80;99.90
16829;DHT22;8531;48.078;11.968;2022-10-31T15:03:38;17.80;99.90
16829;DHT22;8531;48.078;11.968;2022-10-31T15:06:10;17.70;99.90
16829;DHT22;8531;48.078;11.968;2022-10-31T15:08:40;17.70;99.90
16829;DHT22;8531;48.078;11.968;2022-10-31T15:11:26;17.70;99.90
16829;DHT22;8531;48.078;11.968;2022-10-31T15:13:55;17.60;99.90
16829;DHT22;8531;48.078;11.968;2022-10-31T15:18:54;17.50;99.90
16829;DHT22;8531;48.078;11.968;2022-10-31T15:21:23;17.50;99.90
16829;DHT22;8531;48.078;11.968;2022-10-31T15:23:52;17.40;99.90
16829;DHT22;8531;48.078;11.968;2022-10-31T15:26:21;17.40;99.90
16829;DHT22;8531;48.078;11.968;2022-10-31T15:28:59;17.40;99.90
16829;DHT22;8531;48.078;11.968;2022-10-31T15:31:25;17.40;99.90
16829;DHT22;8531;48.078;11.968;2022-10-31T15:33:53;17.40;99.90
16829;DHT22;8531;48.078;11.968;2022-10-31T15:36:25;17.30;99.90
16829;DHT22;8531;48.078;11.968;2022-10-31T15:38:51;17.30;99.90
16829;DHT22;8531;48.078;11.968;2022-10-31T15:43:56;17.20;99.90
16829;DHT22;8531;48.078;11.968;2022-10-31T15:46:24;17.10;99.90
16829;DHT22;8531;48.078;11.968;2022-10-31T15:48:52;17.10;99.90
16829;DHT22;8531;48.078;11.968;2022-10-31T15:51:28;17.10;99.90
16829;DHT22;8531;48.078;11.968;2022-10-31T15:53:56;17.00;99.90
16829;DHT22;8531;48.078;11.968;2022-10-31T15:56:25;16.90;99.90
16829;DHT22;8531;48.078;11.968;2022-10-31T15:58:53;16.90;99.90
16829;DHT22;8531;48.078;11.968;2022-10-31T16:01:24;16.90;99.90
16829;DHT22;8531;48.078;11.968;2022-10-31T16:06:30;16.80;99.90
16829;DHT22;8531;48.078;11.968;2022-10-31T16:08:56;16.70;99.90
16829;DHT22;8531;48.078;11.968;2022-10-31T16:11:36;16.70;99.90
16829;DHT22;8531;48.078;11.968;2022-10-31T16:14:23;16.70;99.90
16829;DHT22;8531;48.078;11.968;2022-10-31T16:16:52;16.60;99.90
16829;DHT22;8531;48.078;11.968;2022-10-31T16:19:23;16.60;99.90
16829;DHT22;8531;48.078;11.968;2022-10-31T16:22:08;16.60;99.90
16829;DHT22;8531;48.078;11.968;2022-10-31T16:24:45;16.50;99.90
16829;DHT22;8531;48.078;11.968;2022-10-31T16:27:23;16.50;99.90
16829;DHT22;8531;48.078;11.968;2022-10-31T16:29:52;16.50;99.90
16829;DHT22;8531;48.078;11.968;2022-10-31T16:32:35;16.50;99.90
16829;DHT22;8531;48.078;11.968;2022-10-31T16:37:33;16.40;99.90
16829;DHT22;8531;48.078;11.968;2022-10-31T16:39:59;16.40;99.90
16829;DHT22;8531;48.078;11.968;2022-10-31T16:42:26;16.30;99.90
16829;DHT22;8531;48.078;11.968;2022-10-31T16:44:52;16.30;99.90
16829;DHT22;8531;48.078;11.968;2022-10-31T16:47:19;16.20;99.90
16829;DHT22;8531;48.078;11.968;2022-10-31T16:49:48;16.20;99.90
16829;DHT22;8531;48.078;11.968;2022-10-31T16:52:18;16.20;99.90
16829;DHT22;8531;48.078;11.968;2022-10-31T16:54:43;16.20;99.90
16829;DHT22;8531;48.078;11.968;2022-10-31T16:57:26;16.10;99.90
16829;DHT22;8531;48.078;11.968;2022-10-31T16:59:54;16.10;99.90
16829;DHT22;8531;48.078;11.968;2022-10-31T17:02:20;16.10;99.90
16829;DHT22;8531;48.078;11.968;2022-10-31T17:04:46;16.10;99.90
16829;DHT22;8531;48.078;11.968;2022-10-31T17:07:12;16.00;99.90
16829;DHT22;8531;48.078;11.968;2022-10-31T17:09:37;15.90;99.90
16829;DHT22;8531;48.078;11.968;2022-10-31T17:12:04;15.90;99.90
16829;DHT22;8531;48.078;11.968;2022-10-31T17:14:30;15.80;99.90
16829;DHT22;8531;48.078;11.968;2022-10-31T17:16:56;15.80;99.90
16829;DHT22;8531;48.078;11.968;2022-10-31T17:19:22;15.70;99.90
16829;DHT22;8531;48.078;11.968;2022-10-31T17:21:47;15.70;99.90
16829;DHT22;8531;48.078;11.968;2022-10-31T17:24:14;15.60;99.90
16829;DHT22;8531;48.078;11.968;2022-10-31T17:26:40;15.60;99.90
16829;DHT22;8531;48.078;11.968;2022-10-31T17:29:06;15.60;99.90
16829;DHT22;8531;48.078;11.968;2022-10-31T17:31:33;15.50;99.90
16829;DHT22;8531;48.078;11.968;2022-10-31T17:34:01;15.50;99.90
16829;DHT22;8531;48.078;11.968;2022-10-31T17:36:30;15.40;99.90
16829;DHT22;8531;48.078;11.968;2022-10-31T17:38:56;15.40;99.90
16829;DHT22;8531;48.078;11.968;2022-10-31T17:41:21;15.40;99.90
16829;DHT22;8531;48.078;11.968;2022-10-31T17:43:47;15.30;99.90
16829;DHT22;8531;48.078;11.968;2022-10-31T17:46:19;15.30;99.90
16829;DHT22;8531;48.078;11.968;2022-10-31T17:48:45;15.20;99.90
16829;DHT22;8531;48.078;11.968;2022-10-31T17:51:10;15.10;99.90
16829;DHT22;8531;48.078;11.968;2022-10-31T17:53:36;15.00;99.90